createdAt,value
2022-12-14T00:00:32.199Z,31.58
2022-12-14T00:02:06.838Z,32.05
2022-12-14T00:03:40.187Z,33.90
2022-12-14T00:05:15.927Z,41.13
2022-12-14T00:06:49.313Z,35.30
2022-12-14T00:08:22.742Z,29.02
2022-12-14T00:09:56.099Z,28.73
2022-12-14T00:11:29.984Z,27.42
2022-12-14T00:13:03.241Z,32.50
2022-12-14T00:14:36.716Z,27.65
2022-12-14T00:16:11.988Z,25.38
2022-12-14T00:17:45.391Z,24.48
2022-12-14T00:19:18.531Z,22.65
2022-12-14T00:20:53.407Z,29.73
2022-12-14T00:22:26.570Z,27.38
2022-12-14T00:24:01.081Z,28.48
2022-12-14T00:25:34.236Z,24.63
2022-12-14T00:27:07.613Z,26.98
2022-12-14T00:28:41.414Z,26.58
2022-12-14T00:30:17.616Z,29.88
2022-12-14T00:31:51.290Z,23.33
2022-12-14T00:33:24.645Z,27.65
2022-12-14T00:34:58.002Z,25.00
2022-12-14T00:36:32.646Z,28.88
2022-12-14T00:38:04.864Z,24.35
2022-12-14T00:39:38.343Z,25.38
2022-12-14T00:41:12.557Z,23.55
2022-12-14T00:42:46.020Z,23.17
2022-12-14T00:44:19.198Z,23.40
2022-12-14T00:45:52.733Z,26.17
2022-12-14T00:47:27.509Z,21.02
2022-12-14T00:49:01.168Z,21.98
2022-12-14T00:50:34.563Z,27.40
2022-12-14T00:52:09.320Z,22.73
2022-12-14T00:53:45.027Z,19.63
2022-12-14T00:55:18.778Z,24.48
2022-12-14T00:56:51.966Z,26.17
2022-12-14T00:58:28.087Z,25.95
2022-12-14T01:00:01.382Z,23.55
2022-12-14T01:01:33.782Z,24.70
2022-12-14T01:03:08.024Z,27.50
2022-12-14T01:04:41.542Z,32.65
2022-12-14T01:06:16.249Z,26.52
2022-12-14T01:07:50.958Z,25.23
2022-12-14T01:09:25.905Z,22.27
2022-12-14T01:10:59.277Z,23.30
2022-12-14T01:12:32.498Z,22.85
2022-12-14T01:14:05.817Z,19.23
2022-12-14T01:15:39.104Z,22.75
2022-12-14T01:17:12.524Z,27.45
2022-12-14T01:18:46.020Z,23.13
2022-12-14T01:20:19.482Z,25.75
2022-12-14T01:21:53.553Z,23.48
2022-12-14T01:23:27.663Z,25.77
2022-12-14T01:25:01.128Z,22.55
2022-12-14T01:26:38.857Z,29.50
2022-12-14T01:28:12.118Z,23.67
2022-12-14T01:29:45.625Z,27.42
2022-12-14T01:31:21.624Z,26.80
2022-12-14T01:32:55.138Z,24.95
2022-12-14T01:34:28.389Z,29.98
2022-12-14T01:36:04.947Z,24.55
2022-12-14T01:37:38.084Z,28.35
2022-12-14T01:39:15.162Z,21.90
2022-12-14T01:40:48.293Z,24.15
2022-12-14T01:42:21.647Z,24.13
2022-12-14T01:43:56.140Z,28.02
2022-12-14T01:45:30.119Z,25.58
2022-12-14T01:47:12.134Z,24.27
2022-12-14T01:48:49.969Z,24.98
2022-12-14T01:50:30.404Z,24.05
2022-12-14T01:52:09.163Z,25.75
2022-12-14T01:53:42.673Z,23.45
2022-12-14T01:55:22.342Z,30.15
2022-12-14T01:56:56.634Z,30.38
2022-12-14T01:58:29.999Z,28.83
2022-12-14T02:00:07.619Z,29.60
2022-12-14T02:01:41.845Z,29.67
2022-12-14T02:03:19.202Z,27.92
2022-12-14T02:04:57.430Z,26.50
2022-12-14T02:06:35.276Z,24.98
2022-12-14T02:08:10.180Z,29.20
2022-12-14T02:09:46.139Z,23.95
2022-12-14T02:11:30.536Z,24.13
2022-12-14T02:13:11.001Z,18.17
2022-12-14T02:14:44.598Z,20.00
2022-12-14T02:16:17.811Z,23.73
2022-12-14T02:17:51.270Z,24.65
2022-12-14T02:19:23.778Z,22.88
2022-12-14T02:21:18.294Z,29.42
2022-12-14T02:23:12.164Z,26.23
2022-12-14T02:25:24.076Z,27.73
2022-12-14T02:27:11.267Z,28.15
2022-12-14T02:29:21.157Z,24.63
2022-12-14T02:30:59.216Z,25.73
2022-12-14T02:32:47.577Z,20.42
2022-12-14T02:34:31.922Z,25.83
2022-12-14T02:36:14.628Z,26.52
2022-12-14T02:37:55.422Z,27.83
2022-12-14T02:39:36.148Z,23.48
2022-12-14T02:41:18.174Z,23.40
2022-12-14T02:43:03.230Z,25.55
2022-12-14T02:44:47.834Z,24.77
2022-12-14T02:46:28.067Z,30.17
2022-12-14T02:48:04.658Z,34.30
2022-12-14T02:49:52.856Z,25.52
2022-12-14T02:51:36.979Z,27.90
2022-12-14T02:53:19.526Z,28.52
2022-12-14T02:54:58.521Z,27.23
2022-12-14T02:56:37.847Z,28.58
2022-12-14T02:58:17.361Z,29.27
2022-12-14T02:59:56.356Z,46.53
2022-12-14T03:01:30.366Z,39.13
2022-12-14T03:03:06.342Z,31.92
2022-12-14T03:04:45.957Z,33.05
2022-12-14T03:06:27.141Z,29.77
2022-12-14T03:08:01.979Z,30.92
2022-12-14T03:09:36.035Z,26.10
2022-12-14T03:11:21.548Z,32.67
2022-12-14T03:12:58.281Z,28.58
2022-12-14T03:14:35.676Z,26.02
2022-12-14T03:16:16.354Z,37.25
2022-12-14T03:17:53.332Z,27.13
2022-12-14T03:19:31.048Z,26.95
2022-12-14T03:21:08.580Z,25.35
2022-12-14T03:22:45.967Z,24.77
2022-12-14T03:24:24.661Z,18.08
2022-12-14T03:26:04.553Z,26.23
2022-12-14T03:27:41.107Z,25.30
2022-12-14T03:29:19.809Z,26.92
2022-12-14T03:31:00.339Z,27.20
2022-12-14T03:32:40.010Z,32.30
2022-12-14T03:34:16.904Z,33.38
2022-12-14T03:35:56.389Z,24.52
2022-12-14T03:37:36.078Z,24.05
2022-12-14T03:39:13.974Z,29.85
2022-12-14T03:40:54.495Z,29.55
2022-12-14T03:42:36.901Z,28.25
2022-12-14T03:44:21.232Z,33.90
2022-12-14T03:46:01.481Z,29.95
2022-12-14T03:47:54.913Z,35.20
2022-12-14T03:49:41.260Z,31.10
2022-12-14T03:51:22.564Z,30.45
2022-12-14T03:53:02.500Z,27.95
2022-12-14T03:54:46.657Z,30.42
2022-12-14T03:56:24.547Z,34.17
2022-12-14T03:58:19.802Z,30.27
2022-12-14T03:59:59.815Z,28.90
2022-12-14T04:01:42.160Z,28.38
2022-12-14T04:03:24.131Z,27.23
2022-12-14T04:05:04.831Z,33.80
2022-12-14T04:06:45.381Z,26.08
2022-12-14T04:08:26.231Z,30.92
2022-12-14T04:10:05.058Z,31.63
2022-12-14T04:12:15.378Z,30.67
2022-12-14T04:14:13.981Z,32.72
2022-12-14T04:16:06.148Z,30.73
2022-12-14T04:17:58.934Z,32.50
2022-12-14T04:19:40.575Z,31.50
2022-12-14T04:21:20.475Z,28.98
2022-12-14T04:22:58.764Z,27.85
2022-12-14T04:24:57.334Z,29.27
2022-12-14T04:26:34.943Z,28.90
2022-12-14T04:28:33.337Z,31.30
2022-12-14T04:30:08.965Z,32.53
2022-12-14T04:31:47.178Z,28.80
2022-12-14T04:33:40.088Z,33.47
2022-12-14T04:35:20.445Z,31.40
2022-12-14T04:36:57.095Z,30.80
2022-12-14T04:38:37.058Z,30.05
2022-12-14T04:40:15.516Z,29.17
2022-12-14T04:41:53.683Z,32.95
2022-12-14T04:43:31.301Z,44.22
2022-12-14T04:45:09.551Z,37.80
2022-12-14T04:46:44.126Z,30.23
2022-12-14T04:48:23.325Z,31.85
2022-12-14T04:50:02.782Z,28.25
2022-12-14T04:51:48.284Z,29.92
2022-12-14T04:53:26.386Z,26.73
2022-12-14T04:55:07.453Z,27.42
2022-12-14T04:56:47.426Z,27.85
2022-12-14T04:58:25.823Z,27.35
2022-12-14T05:00:00.776Z,25.48
2022-12-14T05:01:49.131Z,27.08
2022-12-14T05:03:28.837Z,28.58
2022-12-14T05:05:08.617Z,26.50
2022-12-14T05:06:57.679Z,35.85
2022-12-14T05:08:52.703Z,32.53
2022-12-14T05:10:37.135Z,35.25
2022-12-14T05:12:17.717Z,31.00
2022-12-14T05:13:51.627Z,33.35
2022-12-14T05:15:28.723Z,31.25
2022-12-14T05:17:08.757Z,31.05
2022-12-14T05:18:44.301Z,32.10
2022-12-14T05:20:19.555Z,30.52
2022-12-14T05:21:53.179Z,37.22
2022-12-14T05:23:26.829Z,33.38
2022-12-14T05:25:00.507Z,31.55
2022-12-14T05:26:33.666Z,34.92
2022-12-14T05:28:07.056Z,36.15
2022-12-14T05:29:40.428Z,31.45
2022-12-14T05:31:13.142Z,35.42
2022-12-14T05:32:46.386Z,35.25
2022-12-14T05:34:19.814Z,37.08
2022-12-14T05:35:53.218Z,38.80
2022-12-14T05:37:27.874Z,40.22
2022-12-14T05:39:01.092Z,34.95
2022-12-14T05:40:34.307Z,37.95
2022-12-14T05:42:07.748Z,34.95
2022-12-14T05:43:40.261Z,29.88
2022-12-14T05:45:14.209Z,29.15
2022-12-14T05:46:47.404Z,32.83
2022-12-14T05:48:20.727Z,31.42
2022-12-14T05:49:54.070Z,38.58
2022-12-14T05:51:27.254Z,63.70
2022-12-14T05:53:01.726Z,41.97
2022-12-14T05:54:39.438Z,79.43
2022-12-14T05:56:13.480Z,63.10
2022-12-14T05:57:46.741Z,55.47
2022-12-14T05:59:19.913Z,61.30
2022-12-14T06:00:53.501Z,41.00
2022-12-14T06:02:27.301Z,36.33
2022-12-14T06:04:00.684Z,41.15
2022-12-14T06:05:33.946Z,37.20
2022-12-14T06:07:10.141Z,39.42
2022-12-14T06:08:46.887Z,43.65
2022-12-14T06:10:20.036Z,36.97
2022-12-14T06:11:53.197Z,36.90
2022-12-14T06:13:26.960Z,44.05
2022-12-14T06:15:00.562Z,37.17
2022-12-14T06:16:36.464Z,38.33
2022-12-14T06:18:09.700Z,41.90
2022-12-14T06:19:49.539Z,34.53
2022-12-14T06:21:25.741Z,35.30
2022-12-14T06:22:59.636Z,36.15
2022-12-14T06:24:34.548Z,37.53
2022-12-14T06:26:08.311Z,33.63
2022-12-14T06:27:43.000Z,36.13
2022-12-14T06:29:17.929Z,36.75
2022-12-14T06:30:52.205Z,38.10
2022-12-14T06:32:25.908Z,40.22
2022-12-14T06:34:00.534Z,45.53
2022-12-14T06:35:33.717Z,44.88
2022-12-14T06:37:07.867Z,45.47
2022-12-14T06:38:41.577Z,47.00
2022-12-14T06:40:16.577Z,42.60
2022-12-14T06:41:52.604Z,43.25
2022-12-14T06:43:27.063Z,49.10
2022-12-14T06:45:00.654Z,46.65
2022-12-14T06:46:34.534Z,38.92
2022-12-14T06:48:08.188Z,33.78
2022-12-14T06:49:41.574Z,40.22
2022-12-14T06:51:15.685Z,49.00
2022-12-14T06:52:50.515Z,40.30
2022-12-14T06:54:25.752Z,46.95
2022-12-14T06:56:09.859Z,40.83
2022-12-14T06:57:43.282Z,44.33
2022-12-14T06:59:18.324Z,40.33
2022-12-14T07:00:51.459Z,36.08
2022-12-14T07:02:24.863Z,36.83
2022-12-14T07:03:59.751Z,38.83
2022-12-14T07:05:33.443Z,96.70
2022-12-14T07:07:07.090Z,43.67
2022-12-14T07:08:42.099Z,36.78
2022-12-14T07:10:16.063Z,54.70
2022-12-14T07:11:53.516Z,38.92
2022-12-14T07:13:27.355Z,45.47
2022-12-14T07:15:01.039Z,37.03
2022-12-14T07:16:37.395Z,31.92
2022-12-14T07:18:12.505Z,31.85
2022-12-14T07:19:45.683Z,48.38
2022-12-14T07:21:23.953Z,41.33
2022-12-14T07:22:57.201Z,37.83
2022-12-14T07:24:30.739Z,41.35
2022-12-14T07:26:04.968Z,46.88
2022-12-14T07:27:40.505Z,50.22
2022-12-14T07:29:15.558Z,52.47
2022-12-14T07:30:49.227Z,48.33
2022-12-14T07:32:22.716Z,50.22
2022-12-14T07:33:58.396Z,36.70
2022-12-14T07:35:32.099Z,39.75
2022-12-14T07:37:06.186Z,37.45
2022-12-14T07:38:43.425Z,32.28
2022-12-14T07:40:17.794Z,34.28
2022-12-14T07:41:52.288Z,37.65
2022-12-14T07:43:31.266Z,39.15
2022-12-14T07:45:05.999Z,34.35
2022-12-14T07:46:39.348Z,37.65
2022-12-14T07:48:12.876Z,40.05
2022-12-14T07:49:46.527Z,36.53
2022-12-14T07:51:23.255Z,35.35
2022-12-14T07:52:56.591Z,39.20
2022-12-14T07:54:30.391Z,42.80
2022-12-14T07:56:05.721Z,42.50
2022-12-14T07:57:39.443Z,54.65
2022-12-14T07:59:16.689Z,58.33
2022-12-14T08:00:50.041Z,56.60
2022-12-14T08:02:23.608Z,55.63
2022-12-14T08:03:59.248Z,51.35
2022-12-14T08:05:32.976Z,59.40
2022-12-14T08:07:06.187Z,60.28
2022-12-14T08:08:40.222Z,50.65
2022-12-14T08:10:13.450Z,59.40
2022-12-14T08:11:47.252Z,59.42
2022-12-14T08:13:20.958Z,46.20
2022-12-14T08:14:56.110Z,48.65
2022-12-14T08:16:31.227Z,52.60
2022-12-14T08:18:04.926Z,56.28
2022-12-14T08:19:38.035Z,54.17
2022-12-14T08:21:14.203Z,54.78
2022-12-14T08:22:47.429Z,51.95
2022-12-14T08:24:21.932Z,56.15
2022-12-14T08:25:55.645Z,57.60
2022-12-14T08:27:31.086Z,45.42
2022-12-14T08:29:04.720Z,42.85
2022-12-14T08:30:41.134Z,47.72
2022-12-14T08:32:14.285Z,49.60
2022-12-14T08:33:48.393Z,53.70
2022-12-14T08:35:21.979Z,53.90
2022-12-14T08:36:56.269Z,62.70
2022-12-14T08:38:30.085Z,54.10
2022-12-14T08:40:04.404Z,63.55
2022-12-14T08:41:38.275Z,56.78
2022-12-14T08:43:12.086Z,61.97
2022-12-14T08:44:45.304Z,62.88
2022-12-14T08:46:25.299Z,62.72
2022-12-14T08:47:59.071Z,60.53
2022-12-14T08:49:33.312Z,59.22
2022-12-14T08:51:08.396Z,54.33
2022-12-14T08:52:41.833Z,65.53
2022-12-14T08:54:14.998Z,118.47
2022-12-14T08:55:48.652Z,66.07
2022-12-14T08:57:24.785Z,70.53
2022-12-14T08:58:58.655Z,63.50
2022-12-14T09:00:32.136Z,57.47
2022-12-14T09:02:07.790Z,56.53
2022-12-14T09:03:41.573Z,60.72
2022-12-14T09:05:15.236Z,63.70
2022-12-14T09:06:49.034Z,59.28
2022-12-14T09:08:22.415Z,53.85
2022-12-14T09:09:56.000Z,55.03
2022-12-14T09:11:29.552Z,55.72
2022-12-14T09:13:02.814Z,53.78
2022-12-14T09:14:36.945Z,52.88
2022-12-14T09:16:14.206Z,80.68
2022-12-14T09:17:51.365Z,52.65
2022-12-14T09:19:24.605Z,49.45
2022-12-14T09:20:58.612Z,65.38
2022-12-14T09:22:31.831Z,50.00
2022-12-14T09:24:06.829Z,56.58
2022-12-14T09:25:40.105Z,48.97
2022-12-14T09:27:13.495Z,49.05
2022-12-14T09:28:48.916Z,46.22
2022-12-14T09:30:26.654Z,49.17
2022-12-14T09:32:20.854Z,59.25
2022-12-14T09:33:56.839Z,54.38
2022-12-14T09:35:30.701Z,50.30
2022-12-14T09:37:05.339Z,49.28
2022-12-14T09:38:44.289Z,48.38
2022-12-14T09:40:27.666Z,39.53
2022-12-14T09:42:17.908Z,32.83
2022-12-14T09:43:56.174Z,47.20
2022-12-14T09:45:34.094Z,36.90
2022-12-14T09:47:14.377Z,38.33
2022-12-14T09:48:49.191Z,40.85
2022-12-14T09:50:25.759Z,47.45
2022-12-14T09:52:02.854Z,37.08
2022-12-14T09:53:38.289Z,37.00
2022-12-14T09:55:21.214Z,38.25
2022-12-14T09:56:56.299Z,43.30
2022-12-14T09:58:32.628Z,31.98
2022-12-14T10:00:13.236Z,31.00
2022-12-14T10:02:29.286Z,38.33
2022-12-14T10:04:01.647Z,33.10
2022-12-14T10:06:03.415Z,28.10
2022-12-14T10:07:42.678Z,27.30
2022-12-14T10:09:24.538Z,28.40
2022-12-14T10:11:07.410Z,31.40
2022-12-14T10:12:53.984Z,25.90
2022-12-14T10:14:44.332Z,27.73
2022-12-14T10:16:26.514Z,24.60
2022-12-14T10:18:49.843Z,29.13
2022-12-14T10:20:23.600Z,26.38
2022-12-14T10:22:02.143Z,23.52
2022-12-14T10:23:36.778Z,26.52
2022-12-14T10:25:15.198Z,33.47
2022-12-14T10:26:52.657Z,36.17
2022-12-14T10:28:39.424Z,37.53
2022-12-14T10:30:19.758Z,35.67
2022-12-14T10:32:01.299Z,36.70
2022-12-14T10:33:35.117Z,29.52
2022-12-14T10:35:16.090Z,28.63
2022-12-14T10:36:55.935Z,28.40
2022-12-14T10:38:39.308Z,24.02
2022-12-14T10:40:29.197Z,27.17
2022-12-14T10:42:16.873Z,40.35
2022-12-14T10:43:58.374Z,39.65
2022-12-14T10:45:41.098Z,36.33
2022-12-14T10:47:21.240Z,39.30
2022-12-14T10:49:01.361Z,34.38
2022-12-14T10:50:44.258Z,26.52
2022-12-14T10:52:27.384Z,26.80
2022-12-14T10:54:17.053Z,25.88
2022-12-14T10:55:56.356Z,33.08
2022-12-14T10:57:30.945Z,33.20
2022-12-14T10:59:35.108Z,22.92
2022-12-14T11:01:15.820Z,23.83
2022-12-14T11:02:51.534Z,25.55
2022-12-14T11:04:31.460Z,24.67
2022-12-14T11:06:12.083Z,24.77
2022-12-14T11:07:46.475Z,23.70
2022-12-14T11:09:26.147Z,25.08
2022-12-14T11:11:12.776Z,27.15
2022-12-14T11:13:00.586Z,26.85
2022-12-14T11:14:34.077Z,86.68
2022-12-14T11:16:33.724Z,33.95
2022-12-14T11:18:31.144Z,34.20
2022-12-14T11:20:17.711Z,37.08
2022-12-14T11:21:57.243Z,38.45
2022-12-14T11:23:31.937Z,35.35
2022-12-14T11:25:07.090Z,27.45
2022-12-14T11:26:43.826Z,34.42
2022-12-14T11:28:22.313Z,32.55
2022-12-14T11:29:56.207Z,34.28
2022-12-14T11:31:35.732Z,119.90
2022-12-14T11:33:17.893Z,153.07
2022-12-14T11:34:59.778Z,42.35
2022-12-14T11:36:55.790Z,47.28
2022-12-14T11:38:31.686Z,51.50
2022-12-14T11:40:08.499Z,38.80
2022-12-14T11:41:44.245Z,45.70
2022-12-14T11:43:26.688Z,49.47
2022-12-14T11:45:21.568Z,50.85
2022-12-14T11:47:02.029Z,55.15
2022-12-14T11:48:38.558Z,53.78
2022-12-14T11:50:25.883Z,48.45
2022-12-14T11:52:02.711Z,46.50
2022-12-14T11:53:36.385Z,47.20
2022-12-14T11:55:16.220Z,45.88
2022-12-14T11:56:54.360Z,44.67
2022-12-14T11:58:32.324Z,48.80
2022-12-14T12:00:09.162Z,37.45
2022-12-14T12:01:42.790Z,42.75
2022-12-14T12:03:20.916Z,38.92
2022-12-14T12:04:58.635Z,47.92
2022-12-14T12:06:33.302Z,40.47
2022-12-14T12:08:07.749Z,51.22
2022-12-14T12:09:43.318Z,49.25
2022-12-14T12:11:21.139Z,43.20
2022-12-14T12:12:56.833Z,42.85
2022-12-14T12:14:34.643Z,34.80
2022-12-14T12:16:15.738Z,37.55
2022-12-14T12:17:55.649Z,40.78
2022-12-14T12:19:34.411Z,36.00
2022-12-14T12:21:14.498Z,43.40
2022-12-14T12:22:53.551Z,49.17
2022-12-14T12:24:30.285Z,42.75
2022-12-14T12:26:12.574Z,44.95
2022-12-14T12:27:53.411Z,48.25
2022-12-14T12:29:32.188Z,43.33
2022-12-14T12:31:13.121Z,46.33
2022-12-14T12:32:50.545Z,48.85
2022-12-14T12:34:30.034Z,42.67
2022-12-14T12:36:06.422Z,41.25
2022-12-14T12:37:48.755Z,47.65
2022-12-14T12:39:26.590Z,48.70
2022-12-14T12:41:07.757Z,46.13
2022-12-14T12:42:46.569Z,45.67
2022-12-14T12:44:37.554Z,43.70
2022-12-14T12:46:17.017Z,45.58
2022-12-14T12:47:55.595Z,49.03
2022-12-14T12:49:29.132Z,58.03
2022-12-14T12:51:05.566Z,52.53
2022-12-14T12:53:02.394Z,47.75
2022-12-14T12:54:41.231Z,48.72
2022-12-14T12:56:18.380Z,58.20
2022-12-14T12:57:55.853Z,49.78
2022-12-14T12:59:39.904Z,43.58
2022-12-14T13:01:24.255Z,52.65
2022-12-14T13:03:02.436Z,61.35
2022-12-14T13:04:49.174Z,54.85
2022-12-14T13:06:31.567Z,69.30
2022-12-14T13:08:09.737Z,72.75
2022-12-14T13:09:49.344Z,62.65
2022-12-14T13:11:27.706Z,51.47
2022-12-14T13:13:10.004Z,44.90
2022-12-14T13:14:49.906Z,43.35
2022-12-14T13:16:30.141Z,82.65
2022-12-14T13:18:07.477Z,105.93
2022-12-14T13:19:52.077Z,53.05
2022-12-14T13:21:35.046Z,52.75
2022-12-14T13:23:36.543Z,53.70
2022-12-14T13:25:13.713Z,46.97
2022-12-14T13:27:19.432Z,54.35
2022-12-14T13:28:59.234Z,62.03
2022-12-14T13:30:47.724Z,62.95
2022-12-14T13:32:39.054Z,53.60
2022-12-14T13:34:34.287Z,51.53
2022-12-14T13:36:40.007Z,51.55
2022-12-14T13:38:33.996Z,41.50
2022-12-14T13:40:41.652Z,42.67
2022-12-14T13:42:24.503Z,40.42
2022-12-14T13:44:26.568Z,46.10
2022-12-14T13:46:17.126Z,101.03
2022-12-14T13:47:54.581Z,34.13
2022-12-14T13:49:29.444Z,103.85
2022-12-14T13:51:05.617Z,39.85
2022-12-14T13:52:42.460Z,37.33
2022-12-14T13:54:22.977Z,35.75
2022-12-14T13:55:58.039Z,32.15
2022-12-14T13:57:32.366Z,37.63
2022-12-14T13:59:18.278Z,37.72
2022-12-14T14:00:58.025Z,40.30
2022-12-14T14:02:43.311Z,49.13
2022-12-14T14:04:22.057Z,50.65
2022-12-14T14:05:59.584Z,47.25
2022-12-14T14:07:52.402Z,39.35
2022-12-14T14:10:00.597Z,82.82
2022-12-14T14:11:55.388Z,58.10
2022-12-14T14:14:03.066Z,93.03
2022-12-14T14:16:11.330Z,73.70
2022-12-14T14:17:44.403Z,57.15
2022-12-14T14:19:24.061Z,79.68
2022-12-14T14:21:31.903Z,66.50
2022-12-14T14:23:34.234Z,75.88
2022-12-14T14:25:41.729Z,61.72
2022-12-14T14:27:21.236Z,66.30
2022-12-14T14:29:20.542Z,88.88
2022-12-14T14:30:56.992Z,93.25
2022-12-14T14:32:40.387Z,84.53
2022-12-14T14:34:22.156Z,69.15
2022-12-14T14:36:09.215Z,62.75
2022-12-14T14:37:42.814Z,66.72
2022-12-14T14:41:31.917Z,58.95
2022-12-14T14:43:08.695Z,66.85
2022-12-14T14:44:50.715Z,88.68
2022-12-14T14:46:35.726Z,95.22
2022-12-14T14:48:23.796Z,72.50
2022-12-14T14:50:01.775Z,77.93
2022-12-14T14:51:37.290Z,112.13
2022-12-14T14:53:28.346Z,111.40
2022-12-14T14:55:55.178Z,81.07
2022-12-14T14:57:55.861Z,61.30
2022-12-14T14:59:51.077Z,73.10
2022-12-14T15:01:27.659Z,62.92
2022-12-14T15:03:01.902Z,57.47
2022-12-14T15:04:47.091Z,60.13
2022-12-14T15:06:24.914Z,79.78
2022-12-14T15:08:01.475Z,68.80
2022-12-14T15:09:39.217Z,66.68
2022-12-14T15:11:17.703Z,96.32
2022-12-14T15:12:54.591Z,78.50
2022-12-14T15:14:46.694Z,75.40
2022-12-14T15:16:31.562Z,71.05
2022-12-14T15:18:18.624Z,74.07
2022-12-14T15:19:54.083Z,60.40
2022-12-14T15:21:29.209Z,78.65
2022-12-14T15:23:03.194Z,96.35
2022-12-14T15:24:40.336Z,102.07
2022-12-14T15:26:17.594Z,94.03
2022-12-14T15:27:52.025Z,95.35
2022-12-14T15:29:28.938Z,93.32
2022-12-14T15:31:03.213Z,68.88
2022-12-14T15:32:42.970Z,71.15
2022-12-14T15:34:22.354Z,84.60
2022-12-14T15:36:02.902Z,100.57
2022-12-14T15:37:43.037Z,91.55
2022-12-14T15:39:32.697Z,85.32
2022-12-14T15:41:08.220Z,82.57
2022-12-14T15:42:48.057Z,91.03
2022-12-14T15:44:23.166Z,70.68
2022-12-14T15:46:04.431Z,75.47
2022-12-14T15:47:38.742Z,125.55
2022-12-14T15:49:23.361Z,74.07
2022-12-14T15:50:59.217Z,122.30
2022-12-14T15:52:32.717Z,60.33
2022-12-14T15:54:13.585Z,71.80
2022-12-14T15:55:59.839Z,79.53
2022-12-14T15:57:34.410Z,142.55
2022-12-14T15:59:16.922Z,84.18
2022-12-14T16:00:53.820Z,84.88
2022-12-14T16:02:32.141Z,97.97
2022-12-14T16:04:07.913Z,130.10
2022-12-14T16:05:41.469Z,118.18
2022-12-14T16:07:18.881Z,181.05
2022-12-14T16:08:56.219Z,162.23
2022-12-14T16:10:33.752Z,153.40
2022-12-14T16:12:10.815Z,180.07
2022-12-14T16:13:45.451Z,179.05
2022-12-14T16:15:21.319Z,165.77
2022-12-14T16:16:55.539Z,149.88
2022-12-14T16:18:28.816Z,103.95
2022-12-14T16:20:04.985Z,100.50
2022-12-14T16:21:38.216Z,112.38
2022-12-14T16:23:28.048Z,100.53
2022-12-14T16:25:16.800Z,94.25
2022-12-14T16:26:59.108Z,102.50
2022-12-14T16:28:34.445Z,98.32
2022-12-14T16:30:23.436Z,76.13
2022-12-14T16:32:05.836Z,78.35
2022-12-14T16:33:41.719Z,83.50
2022-12-14T16:35:23.070Z,92.20
2022-12-14T16:37:31.056Z,67.40
2022-12-14T16:39:03.996Z,67.35
2022-12-14T16:40:39.292Z,64.40
2022-12-14T16:42:20.799Z,69.72
2022-12-14T16:43:57.217Z,70.90
2022-12-14T16:46:10.701Z,72.93
2022-12-14T16:48:04.579Z,71.38
2022-12-14T16:49:40.146Z,69.35
2022-12-14T16:52:05.557Z,88.72
2022-12-14T16:53:30.884Z,73.63
2022-12-14T16:55:12.065Z,76.13
2022-12-14T16:56:46.291Z,64.20
2022-12-14T16:58:21.498Z,48.15
2022-12-14T17:00:01.903Z,64.82
2022-12-14T17:01:42.817Z,69.45
2022-12-14T17:03:23.469Z,72.28
2022-12-14T17:04:58.589Z,57.50
2022-12-14T17:06:39.353Z,68.35
2022-12-14T17:08:13.125Z,58.33
2022-12-14T17:09:46.567Z,47.97
2022-12-14T17:11:21.575Z,46.47
2022-12-14T17:12:59.099Z,47.85
2022-12-14T17:14:34.021Z,54.72
2022-12-14T17:16:09.158Z,60.13
2022-12-14T17:17:43.041Z,58.47
2022-12-14T17:19:22.518Z,72.85
2022-12-14T17:20:55.815Z,106.68
2022-12-14T17:22:31.358Z,133.45
2022-12-14T17:24:04.994Z,115.10
2022-12-14T17:25:42.058Z,107.40
2022-12-14T17:27:23.068Z,100.60
2022-12-14T17:28:56.568Z,108.45
2022-12-14T17:30:34.352Z,125.32
2022-12-14T17:32:08.152Z,124.10
2022-12-14T17:33:41.377Z,100.45
2022-12-14T17:35:18.087Z,113.18
2022-12-14T17:36:51.910Z,100.07
2022-12-14T17:38:25.850Z,85.28
2022-12-14T17:40:00.032Z,84.88
2022-12-14T17:41:33.655Z,75.13
2022-12-14T17:43:07.337Z,84.38
2022-12-14T17:44:42.095Z,95.22
2022-12-14T17:46:16.758Z,112.22
2022-12-14T17:47:50.457Z,102.40
2022-12-14T17:49:35.029Z,93.25
2022-12-14T17:51:08.314Z,92.22
2022-12-14T17:52:41.553Z,104.68
2022-12-14T17:54:17.614Z,103.53
2022-12-14T17:55:50.812Z,90.70
2022-12-14T17:57:26.071Z,91.15
2022-12-14T17:58:59.215Z,89.03
2022-12-14T18:00:50.695Z,86.13
2022-12-14T18:02:33.390Z,74.55
2022-12-14T18:04:08.188Z,111.38
2022-12-14T18:05:48.375Z,104.32
2022-12-14T18:07:22.140Z,87.43
2022-12-14T18:08:55.295Z,95.90
2022-12-14T18:10:28.959Z,94.30
2022-12-14T18:12:22.567Z,75.70
2022-12-14T18:13:56.076Z,76.60
2022-12-14T18:15:31.667Z,77.65
2022-12-14T18:17:09.798Z,82.00
2022-12-14T18:18:46.407Z,79.78
2022-12-14T18:20:23.987Z,85.40
2022-12-14T18:21:58.099Z,78.28
2022-12-14T18:23:32.454Z,71.97
2022-12-14T18:25:22.729Z,54.00
2022-12-14T18:26:56.526Z,61.38
2022-12-14T18:28:29.922Z,59.20
2022-12-14T18:30:04.197Z,63.92
2022-12-14T18:31:38.879Z,79.32
2022-12-14T18:33:15.644Z,82.05
2022-12-14T18:34:50.246Z,78.13
2022-12-14T18:36:24.033Z,75.20
2022-12-14T18:37:57.301Z,70.38
2022-12-14T18:39:30.516Z,76.80
2022-12-14T18:41:03.747Z,70.45
2022-12-14T18:42:36.925Z,70.32
2022-12-14T18:44:11.904Z,77.88
2022-12-14T18:45:45.140Z,69.40
2022-12-14T18:47:40.763Z,70.05
2022-12-14T18:49:11.436Z,89.22
2022-12-14T18:50:46.091Z,81.70
2022-12-14T18:52:22.945Z,68.15
2022-12-14T18:53:58.116Z,66.63
2022-12-14T18:55:33.861Z,62.65
2022-12-14T18:57:07.126Z,58.10
2022-12-14T18:58:42.154Z,65.63
2022-12-14T19:00:17.594Z,69.35
2022-12-14T19:01:51.166Z,69.43
2022-12-14T19:03:25.845Z,65.97
2022-12-14T19:04:59.141Z,66.35
2022-12-14T19:06:44.077Z,66.75
2022-12-14T19:08:19.055Z,73.35
2022-12-14T19:09:52.316Z,51.13
2022-12-14T19:11:31.758Z,67.78
2022-12-14T19:13:06.764Z,62.40
2022-12-14T19:14:43.334Z,68.55
2022-12-14T19:16:16.672Z,76.82
2022-12-14T19:17:49.989Z,54.63
2022-12-14T19:19:25.724Z,46.90
2022-12-14T19:21:00.895Z,49.95
2022-12-14T19:22:35.547Z,50.83
2022-12-14T19:24:09.346Z,51.25
2022-12-14T19:25:43.053Z,45.40
2022-12-14T19:27:25.921Z,52.45
2022-12-14T19:29:09.366Z,53.47
2022-12-14T19:30:45.300Z,44.20
2022-12-14T19:32:18.420Z,46.78
2022-12-14T19:33:51.579Z,45.10
2022-12-14T19:35:25.662Z,44.92
2022-12-14T19:36:58.853Z,38.00
2022-12-14T19:38:35.298Z,46.97
2022-12-14T19:40:13.546Z,41.05
2022-12-14T19:41:47.994Z,44.70
2022-12-14T19:43:21.233Z,42.75
2022-12-14T19:44:54.472Z,50.25
2022-12-14T19:46:27.725Z,44.35
2022-12-14T19:48:00.896Z,48.53
2022-12-14T19:49:34.094Z,50.65
2022-12-14T19:51:08.678Z,54.17
2022-12-14T19:52:42.060Z,51.63
2022-12-14T19:54:16.696Z,55.50
2022-12-14T19:55:52.635Z,50.28
2022-12-14T19:57:25.901Z,50.40
2022-12-14T19:59:00.867Z,80.88
2022-12-14T20:00:34.092Z,105.30
2022-12-14T20:02:07.381Z,105.90
2022-12-14T20:03:40.948Z,72.45
2022-12-14T20:05:14.551Z,71.32
2022-12-14T20:06:47.759Z,68.90
2022-12-14T20:08:21.028Z,69.32
2022-12-14T20:09:55.593Z,48.47
2022-12-14T20:11:29.147Z,51.40
2022-12-14T20:13:02.503Z,55.08
2022-12-14T20:14:39.801Z,60.17
2022-12-14T20:16:17.311Z,58.00
2022-12-14T20:17:50.539Z,65.60
2022-12-14T20:19:24.133Z,59.95
2022-12-14T20:21:03.209Z,47.65
2022-12-14T20:22:36.789Z,39.13
2022-12-14T20:24:11.448Z,54.30
2022-12-14T20:25:46.073Z,59.25
2022-12-14T20:27:19.919Z,54.05
2022-12-14T20:28:54.884Z,45.50
2022-12-14T20:30:28.036Z,46.92
2022-12-14T20:32:01.231Z,50.70
2022-12-14T20:33:34.977Z,49.78
2022-12-14T20:35:11.005Z,44.65
2022-12-14T20:36:44.116Z,52.40
2022-12-14T20:38:17.377Z,49.30
2022-12-14T20:39:50.497Z,43.15
2022-12-14T20:41:26.702Z,48.45
2022-12-14T20:42:59.879Z,42.25
2022-12-14T20:44:33.155Z,46.30
2022-12-14T20:46:06.705Z,42.72
2022-12-14T20:47:40.739Z,42.22
2022-12-14T20:49:15.682Z,43.78
2022-12-14T20:50:50.524Z,40.83
2022-12-14T20:52:25.599Z,40.78
2022-12-14T20:53:58.835Z,42.38
2022-12-14T20:55:32.239Z,42.85
2022-12-14T20:57:06.871Z,45.28
2022-12-14T20:58:40.047Z,47.03
2022-12-14T21:00:14.504Z,53.58
2022-12-14T21:01:53.449Z,48.53
2022-12-14T21:03:29.372Z,45.80
2022-12-14T21:05:02.833Z,61.42
2022-12-14T21:06:39.271Z,59.75
2022-12-14T21:08:15.517Z,56.88